Terminal Aerodrome Forecast
Issued by NWS

Home | Current Version | Previous Version | Text Only | Print | Product List | Glossary On
Versions: 1 2 3 4 5 6 7 8 9 10 11 12 13 14 15 16 17 18 19
000
FTUS46 KHNX 190535
TAFBFL
TAF
KBFL 190535Z 1906/2006 07004KT P6SM SCT200
     FM191300 11003KT 3SM BR SCT100 BKN200
     FM192300 28003KT 4SM HZ OVC050=

USA.gov is the U.S. government's official web portal to all federal, state and local government web resources and services.